sensor_id;sensor_type;location;lat;lon;timestamp;temperature;humidity
56374;DHT22;58212;47.034;7.376;2023-03-19T00:02:00;11.40;99.90
56374;DHT22;58212;47.034;7.376;2023-03-19T00:04:28;11.50;99.90
56374;DHT22;58212;47.034;7.376;2023-03-19T00:06:55;11.50;99.90
56374;DHT22;58212;47.034;7.376;2023-03-19T00:09:22;11.40;99.90
56374;DHT22;58212;47.034;7.376;2023-03-19T00:11:50;11.40;99.90
56374;DHT22;58212;47.034;7.376;2023-03-19T00:14:17;11.40;99.90
56374;DHT22;58212;47.034;7.376;2023-03-19T00:16:44;11.40;99.90
56374;DHT22;58212;47.034;7.376;2023-03-19T00:19:11;11.30;99.90
56374;DHT22;58212;47.034;7.376;2023-03-19T00:21:38;11.30;99.90
56374;DHT22;58212;47.034;7.376;2023-03-19T00:24:05;11.30;99.90
56374;DHT22;58212;47.034;7.376;2023-03-19T00:26:33;11.40;99.90
56374;DHT22;58212;47.034;7.376;2023-03-19T00:29:03;11.30;99.90
56374;DHT22;58212;47.034;7.376;2023-03-19T00:31:30;11.20;99.90
56374;DHT22;58212;47.034;7.376;2023-03-19T00:33:58;11.30;99.90
56374;DHT22;58212;47.034;7.376;2023-03-19T00:36:26;11.20;99.90
56374;DHT22;58212;47.034;7.376;2023-03-19T00:38:53;11.30;99.90
56374;DHT22;58212;47.034;7.376;2023-03-19T00:41:20;11.10;99.90
56374;DHT22;58212;47.034;7.376;2023-03-19T00:43:51;11.10;99.90
56374;DHT22;58212;47.034;7.376;2023-03-19T00:46:20;11.30;99.90
56374;DHT22;58212;47.034;7.376;2023-03-19T00:48:49;11.30;99.90
56374;DHT22;58212;47.034;7.376;2023-03-19T00:51:20;11.20;99.90
56374;DHT22;58212;47.034;7.376;2023-03-19T00:53:47;11.10;99.90
56374;DHT22;58212;47.034;7.376;2023-03-19T00:56:15;11.10;99.90
56374;DHT22;58212;47.034;7.376;2023-03-19T00:58:45;11.20;99.90
56374;DHT22;58212;47.034;7.376;2023-03-19T01:01:14;11.30;99.90
56374;DHT22;58212;47.034;7.376;2023-03-19T01:03:43;11.20;99.90
56374;DHT22;58212;47.034;7.376;2023-03-19T01:06:11;11.20;99.90
56374;DHT22;58212;47.034;7.376;2023-03-19T01:08:38;11.10;99.90
56374;DHT22;58212;47.034;7.376;2023-03-19T01:11:07;11.20;99.90
56374;DHT22;58212;47.034;7.376;2023-03-19T01:13:35;11.10;99.90
56374;DHT22;58212;47.034;7.376;2023-03-19T01:16:02;11.10;99.90
56374;DHT22;58212;47.034;7.376;2023-03-19T01:18:29;11.10;99.90
56374;DHT22;58212;47.034;7.376;2023-03-19T01:20:58;11.00;99.90
56374;DHT22;58212;47.034;7.376;2023-03-19T01:23:27;11.00;99.90
56374;DHT22;58212;47.034;7.376;2023-03-19T01:25:54;10.90;99.90
56374;DHT22;58212;47.034;7.376;2023-03-19T01:28:22;11.00;99.90
56374;DHT22;58212;47.034;7.376;2023-03-19T01:30:49;11.00;99.90
56374;DHT22;58212;47.034;7.376;2023-03-19T01:33:35;10.90;99.90
56374;DHT22;58212;47.034;7.376;2023-03-19T01:36:12;10.90;99.90
56374;DHT22;58212;47.034;7.376;2023-03-19T01:38:57;10.90;99.90
56374;DHT22;58212;47.034;7.376;2023-03-19T01:41:24;10.90;99.90
56374;DHT22;58212;47.034;7.376;2023-03-19T01:43:55;10.90;99.90
56374;DHT22;58212;47.034;7.376;2023-03-19T01:46:50;10.80;99.90
56374;DHT22;58212;47.034;7.376;2023-03-19T01:49:38;10.70;99.90
56374;DHT22;58212;47.034;7.376;2023-03-19T01:52:21;10.60;99.90
56374;DHT22;58212;47.034;7.376;2023-03-19T01:55:07;10.60;99.90
56374;DHT22;58212;47.034;7.376;2023-03-19T01:57:41;10.60;99.90
56374;DHT22;58212;47.034;7.376;2023-03-19T02:00:09;10.70;99.90
56374;DHT22;58212;47.034;7.376;2023-03-19T02:02:43;10.70;99.90
56374;DHT22;58212;47.034;7.376;2023-03-19T02:05:26;10.60;99.90
56374;DHT22;58212;47.034;7.376;2023-03-19T02:08:04;10.80;99.90
56374;DHT22;58212;47.034;7.376;2023-03-19T02:10:32;10.80;99.90
56374;DHT22;58212;47.034;7.376;2023-03-19T02:13:00;11.00;99.90
56374;DHT22;58212;47.034;7.376;2023-03-19T02:15:27;11.00;99.90
56374;DHT22;58212;47.034;7.376;2023-03-19T02:17:54;11.00;99.90
56374;DHT22;58212;47.034;7.376;2023-03-19T02:20:24;10.90;99.90
56374;DHT22;58212;47.034;7.376;2023-03-19T02:23:06;10.80;99.90
56374;DHT22;58212;47.034;7.376;2023-03-19T02:25:39;10.80;99.90
56374;DHT22;58212;47.034;7.376;2023-03-19T02:28:12;10.70;99.90
56374;DHT22;58212;47.034;7.376;2023-03-19T02:30:42;10.60;99.90
56374;DHT22;58212;47.034;7.376;2023-03-19T02:33:12;10.50;99.90
56374;DHT22;58212;47.034;7.376;2023-03-19T02:35:39;10.50;99.90
56374;DHT22;58212;47.034;7.376;2023-03-19T02:38:08;10.50;99.90
56374;DHT22;58212;47.034;7.376;2023-03-19T02:40:40;10.50;99.90
56374;DHT22;58212;47.034;7.376;2023-03-19T02:43:10;10.60;99.90
56374;DHT22;58212;47.034;7.376;2023-03-19T02:45:38;10.50;99.90
56374;DHT22;58212;47.034;7.376;2023-03-19T02:48:05;10.50;99.90
56374;DHT22;58212;47.034;7.376;2023-03-19T02:50:32;10.50;99.90
56374;DHT22;58212;47.034;7.376;2023-03-19T02:52:59;10.40;99.90
56374;DHT22;58212;47.034;7.376;2023-03-19T02:55:26;10.40;99.90
56374;DHT22;58212;47.034;7.376;2023-03-19T02:57:53;10.40;99.90
56374;DHT22;58212;47.034;7.376;2023-03-19T03:00:22;10.30;99.90
56374;DHT22;58212;47.034;7.376;2023-03-19T03:02:50;10.30;99.90
56374;DHT22;58212;47.034;7.376;2023-03-19T03:05:17;10.10;99.90
56374;DHT22;58212;47.034;7.376;2023-03-19T03:07:44;10.20;99.90
56374;DHT22;58212;47.034;7.376;2023-03-19T03:10:11;10.20;99.90
56374;DHT22;58212;47.034;7.376;2023-03-19T03:12:38;10.30;99.90
56374;DHT22;58212;47.034;7.376;2023-03-19T03:15:06;10.20;99.90
56374;DHT22;58212;47.034;7.376;2023-03-19T03:17:37;10.00;99.90
56374;DHT22;58212;47.034;7.376;2023-03-19T03:20:06;10.00;99.90
56374;DHT22;58212;47.034;7.376;2023-03-19T03:22:34;9.90;99.90
56374;DHT22;58212;47.034;7.376;2023-03-19T03:25:01;9.80;99.90
56374;DHT22;58212;47.034;7.376;2023-03-19T03:27:29;9.90;99.90
56374;DHT22;58212;47.034;7.376;2023-03-19T03:29:56;9.90;99.90
56374;DHT22;58212;47.034;7.376;2023-03-19T03:32:25;9.80;99.90
56374;DHT22;58212;47.034;7.376;2023-03-19T03:34:53;9.80;99.90
56374;DHT22;58212;47.034;7.376;2023-03-19T03:37:21;9.70;99.90
56374;DHT22;58212;47.034;7.376;2023-03-19T03:39:48;9.80;99.90
56374;DHT22;58212;47.034;7.376;2023-03-19T03:42:17;9.80;99.90
56374;DHT22;58212;47.034;7.376;2023-03-19T03:44:44;9.80;99.90
56374;DHT22;58212;47.034;7.376;2023-03-19T03:47:12;9.90;99.90
56374;DHT22;58212;47.034;7.376;2023-03-19T03:49:39;9.90;99.90
56374;DHT22;58212;47.034;7.376;2023-03-19T03:52:08;9.80;99.90
56374;DHT22;58212;47.034;7.376;2023-03-19T03:54:36;9.70;99.90
56374;DHT22;58212;47.034;7.376;2023-03-19T03:57:03;9.70;99.90
56374;DHT22;58212;47.034;7.376;2023-03-19T03:59:31;9.80;99.90
56374;DHT22;58212;47.034;7.376;2023-03-19T04:01:58;9.70;99.90
56374;DHT22;58212;47.034;7.376;2023-03-19T04:04:24;9.80;99.90
56374;DHT22;58212;47.034;7.376;2023-03-19T04:06:52;9.80;99.90
56374;DHT22;58212;47.034;7.376;2023-03-19T04:09:46;9.70;99.90
56374;DHT22;58212;47.034;7.376;2023-03-19T04:12:17;9.80;99.90
56374;DHT22;58212;47.034;7.376;2023-03-19T04:14:45;9.80;99.90
56374;DHT22;58212;47.034;7.376;2023-03-19T04:17:14;9.70;99.90
56374;DHT22;58212;47.034;7.376;2023-03-19T04:19:41;9.60;99.90
56374;DHT22;58212;47.034;7.376;2023-03-19T04:22:09;9.60;99.90
56374;DHT22;58212;47.034;7.376;2023-03-19T04:24:36;9.40;99.90
56374;DHT22;58212;47.034;7.376;2023-03-19T04:27:06;9.30;99.90
56374;DHT22;58212;47.034;7.376;2023-03-19T04:29:34;9.40;99.90
56374;DHT22;58212;47.034;7.376;2023-03-19T04:32:01;9.50;99.90
56374;DHT22;58212;47.034;7.376;2023-03-19T04:34:28;9.40;99.90
56374;DHT22;58212;47.034;7.376;2023-03-19T04:36:55;9.30;99.90
56374;DHT22;58212;47.034;7.376;2023-03-19T04:39:23;9.40;99.90
56374;DHT22;58212;47.034;7.376;2023-03-19T04:41:51;9.30;99.90
56374;DHT22;58212;47.034;7.376;2023-03-19T04:44:26;9.20;99.90
56374;DHT22;58212;47.034;7.376;2023-03-19T04:46:54;9.20;99.90
56374;DHT22;58212;47.034;7.376;2023-03-19T04:49:22;9.10;99.90
56374;DHT22;58212;47.034;7.376;2023-03-19T04:51:55;9.00;99.90
56374;DHT22;58212;47.034;7.376;2023-03-19T04:54:23;9.20;99.90
56374;DHT22;58212;47.034;7.376;2023-03-19T04:56:50;9.20;99.90
56374;DHT22;58212;47.034;7.376;2023-03-19T04:59:20;9.20;99.90
56374;DHT22;58212;47.034;7.376;2023-03-19T05:01:49;9.30;99.90
56374;DHT22;58212;47.034;7.376;2023-03-19T05:04:20;9.20;99.90
56374;DHT22;58212;47.034;7.376;2023-03-19T05:06:58;9.30;99.90
56374;DHT22;58212;47.034;7.376;2023-03-19T05:09:26;9.30;99.90
56374;DHT22;58212;47.034;7.376;2023-03-19T05:11:55;9.30;99.90
56374;DHT22;58212;47.034;7.376;2023-03-19T05:14:23;9.30;99.90
56374;DHT22;58212;47.034;7.376;2023-03-19T05:17:02;9.30;99.90
56374;DHT22;58212;47.034;7.376;2023-03-19T05:19:54;9.30;99.90
56374;DHT22;58212;47.034;7.376;2023-03-19T05:22:22;9.30;99.90
56374;DHT22;58212;47.034;7.376;2023-03-19T05:24:51;9.30;99.90
56374;DHT22;58212;47.034;7.376;2023-03-19T05:27:19;9.50;99.90
56374;DHT22;58212;47.034;7.376;2023-03-19T05:29:55;9.50;99.90
56374;DHT22;58212;47.034;7.376;2023-03-19T05:32:43;9.50;99.90
56374;DHT22;58212;47.034;7.376;2023-03-19T05:35:22;9.50;99.90
56374;DHT22;58212;47.034;7.376;2023-03-19T05:37:49;9.60;99.90
56374;DHT22;58212;47.034;7.376;2023-03-19T05:40:16;9.60;99.90
56374;DHT22;58212;47.034;7.376;2023-03-19T05:42:45;9.50;99.90
56374;DHT22;58212;47.034;7.376;2023-03-19T05:45:15;9.50;99.90
56374;DHT22;58212;47.034;7.376;2023-03-19T05:47:51;9.40;99.90
56374;DHT22;58212;47.034;7.376;2023-03-19T05:50:19;9.30;99.90
56374;DHT22;58212;47.034;7.376;2023-03-19T05:53:08;9.30;99.90
56374;DHT22;58212;47.034;7.376;2023-03-19T05:55:41;9.30;99.90
56374;DHT22;58212;47.034;7.376;2023-03-19T05:58:10;9.30;99.90
56374;DHT22;58212;47.034;7.376;2023-03-19T06:00:37;9.20;99.90
56374;DHT22;58212;47.034;7.376;2023-03-19T06:03:05;9.10;99.90
56374;DHT22;58212;47.034;7.376;2023-03-19T06:05:39;9.10;99.90
56374;DHT22;58212;47.034;7.376;2023-03-19T06:08:21;9.10;99.90
56374;DHT22;58212;47.034;7.376;2023-03-19T06:10:59;9.20;99.90
56374;DHT22;58212;47.034;7.376;2023-03-19T06:13:27;9.20;99.90
56374;DHT22;58212;47.034;7.376;2023-03-19T06:15:58;9.30;99.90
56374;DHT22;58212;47.034;7.376;2023-03-19T06:18:34;9.30;99.90
56374;DHT22;58212;47.034;7.376;2023-03-19T06:21:07;9.20;99.90
56374;DHT22;58212;47.034;7.376;2023-03-19T06:23:35;9.40;99.90
56374;DHT22;58212;47.034;7.376;2023-03-19T06:26:04;9.60;99.90
56374;DHT22;58212;47.034;7.376;2023-03-19T06:28:38;9.70;99.90
56374;DHT22;58212;47.034;7.376;2023-03-19T06:31:05;9.80;99.90
56374;DHT22;58212;47.034;7.376;2023-03-19T06:33:53;9.80;99.90
56374;DHT22;58212;47.034;7.376;2023-03-19T06:36:25;10.00;99.90
56374;DHT22;58212;47.034;7.376;2023-03-19T06:38:52;10.00;99.90
56374;DHT22;58212;47.034;7.376;2023-03-19T06:41:19;10.00;99.90
56374;DHT22;58212;47.034;7.376;2023-03-19T06:43:48;9.90;99.90
56374;DHT22;58212;47.034;7.376;2023-03-19T06:46:15;9.90;99.90
56374;DHT22;58212;47.034;7.376;2023-03-19T06:48:46;10.00;99.90
56374;DHT22;58212;47.034;7.376;2023-03-19T06:51:14;10.00;99.90
56374;DHT22;58212;47.034;7.376;2023-03-19T06:53:43;10.00;99.90
56374;DHT22;58212;47.034;7.376;2023-03-19T06:56:10;9.90;99.90
56374;DHT22;58212;47.034;7.376;2023-03-19T06:58:37;9.90;99.90
56374;DHT22;58212;47.034;7.376;2023-03-19T07:01:04;10.00;99.90
56374;DHT22;58212;47.034;7.376;2023-03-19T07:03:31;10.00;99.90
56374;DHT22;58212;47.034;7.376;2023-03-19T07:05:57;10.00;99.90
56374;DHT22;58212;47.034;7.376;2023-03-19T07:08:26;10.00;99.90
56374;DHT22;58212;47.034;7.376;2023-03-19T07:10:56;10.10;99.90
56374;DHT22;58212;47.034;7.376;2023-03-19T07:13:28;10.10;99.90
56374;DHT22;58212;47.034;7.376;2023-03-19T07:15:56;10.40;99.90
56374;DHT22;58212;47.034;7.376;2023-03-19T07:18:23;10.30;99.90
56374;DHT22;58212;47.034;7.376;2023-03-19T07:20:50;10.30;99.90
56374;DHT22;58212;47.034;7.376;2023-03-19T07:23:18;10.40;99.90
56374;DHT22;58212;47.034;7.376;2023-03-19T07:25:46;10.40;99.90
56374;DHT22;58212;47.034;7.376;2023-03-19T07:28:14;10.40;99.90
56374;DHT22;58212;47.034;7.376;2023-03-19T07:30:41;10.50;99.90
56374;DHT22;58212;47.034;7.376;2023-03-19T07:33:08;10.40;99.90
56374;DHT22;58212;47.034;7.376;2023-03-19T07:35:35;11.30;99.90
56374;DHT22;58212;47.034;7.376;2023-03-19T07:38:02;12.00;99.90
56374;DHT22;58212;47.034;7.376;2023-03-19T07:40:29;11.10;99.90
56374;DHT22;58212;47.034;7.376;2023-03-19T07:43:22;10.80;99.90
56374;DHT22;58212;47.034;7.376;2023-03-19T07:45:49;10.60;99.90
56374;DHT22;58212;47.034;7.376;2023-03-19T07:48:16;10.80;99.90
56374;DHT22;58212;47.034;7.376;2023-03-19T07:50:43;10.90;99.90
56374;DHT22;58212;47.034;7.376;2023-03-19T07:53:10;10.80;99.90
56374;DHT22;58212;47.034;7.376;2023-03-19T07:55:37;10.90;99.90
56374;DHT22;58212;47.034;7.376;2023-03-19T07:58:04;10.70;99.90
56374;DHT22;58212;47.034;7.376;2023-03-19T08:00:32;10.50;99.90
56374;DHT22;58212;47.034;7.376;2023-03-19T08:06:43;10.70;99.90
56374;DHT22;58212;47.034;7.376;2023-03-19T08:09:35;10.90;99.90
56374;DHT22;58212;47.034;7.376;2023-03-19T08:12:03;10.80;99.90
56374;DHT22;58212;47.034;7.376;2023-03-19T08:14:30;10.90;99.90
56374;DHT22;58212;47.034;7.376;2023-03-19T08:16:58;11.00;99.90
56374;DHT22;58212;47.034;7.376;2023-03-19T08:19:25;11.20;99.90
56374;DHT22;58212;47.034;7.376;2023-03-19T08:21:52;11.10;99.90
56374;DHT22;58212;47.034;7.376;2023-03-19T08:24:19;11.20;99.90
56374;DHT22;58212;47.034;7.376;2023-03-19T08:26:46;11.40;99.90
56374;DHT22;58212;47.034;7.376;2023-03-19T08:29:14;11.40;99.90
56374;DHT22;58212;47.034;7.376;2023-03-19T08:31:41;11.80;99.90
56374;DHT22;58212;47.034;7.376;2023-03-19T08:34:09;12.20;99.90
56374;DHT22;58212;47.034;7.376;2023-03-19T08:36:36;12.30;99.90
56374;DHT22;58212;47.034;7.376;2023-03-19T08:39:28;12.30;99.90
56374;DHT22;58212;47.034;7.376;2023-03-19T08:41:57;11.90;99.90
56374;DHT22;58212;47.034;7.376;2023-03-19T08:44:24;12.20;99.90
56374;DHT22;58212;47.034;7.376;2023-03-19T08:46:51;12.40;99.90
56374;DHT22;58212;47.034;7.376;2023-03-19T08:49:19;12.40;99.90
56374;DHT22;58212;47.034;7.376;2023-03-19T08:51:49;12.40;99.90
56374;DHT22;58212;47.034;7.376;2023-03-19T08:54:16;12.50;99.90
56374;DHT22;58212;47.034;7.376;2023-03-19T08:56:44;12.50;99.90
56374;DHT22;58212;47.034;7.376;2023-03-19T08:59:11;12.50;99.90
56374;DHT22;58212;47.034;7.376;2023-03-19T09:01:39;12.30;99.90
56374;DHT22;58212;47.034;7.376;2023-03-19T09:04:06;12.00;99.90
56374;DHT22;58212;47.034;7.376;2023-03-19T09:06:35;12.20;99.90
56374;DHT22;58212;47.034;7.376;2023-03-19T09:09:01;12.00;99.90
56374;DHT22;58212;47.034;7.376;2023-03-19T09:11:29;12.00;99.90
56374;DHT22;58212;47.034;7.376;2023-03-19T09:13:56;12.30;99.90
56374;DHT22;58212;47.034;7.376;2023-03-19T09:16:23;12.40;99.90
56374;DHT22;58212;47.034;7.376;2023-03-19T09:18:50;12.50;99.90
56374;DHT22;58212;47.034;7.376;2023-03-19T09:21:18;13.00;99.90
56374;DHT22;58212;47.034;7.376;2023-03-19T09:23:46;12.90;99.90
56374;DHT22;58212;47.034;7.376;2023-03-19T09:26:13;12.90;99.90
56374;DHT22;58212;47.034;7.376;2023-03-19T09:28:40;13.20;99.90
56374;DHT22;58212;47.034;7.376;2023-03-19T09:31:09;13.20;99.90
56374;DHT22;58212;47.034;7.376;2023-03-19T09:33:36;13.40;99.90
56374;DHT22;58212;47.034;7.376;2023-03-19T09:36:04;13.50;99.90
56374;DHT22;58212;47.034;7.376;2023-03-19T09:38:31;13.40;99.90
56374;DHT22;58212;47.034;7.376;2023-03-19T09:41:08;13.10;99.90
56374;DHT22;58212;47.034;7.376;2023-03-19T09:43:54;12.90;99.90
56374;DHT22;58212;47.034;7.376;2023-03-19T09:46:28;13.00;99.90
56374;DHT22;58212;47.034;7.376;2023-03-19T09:49:23;12.90;99.90
56374;DHT22;58212;47.034;7.376;2023-03-19T09:51:52;12.90;99.90
56374;DHT22;58212;47.034;7.376;2023-03-19T09:54:50;13.10;99.90
56374;DHT22;58212;47.034;7.376;2023-03-19T09:57:23;13.00;99.90
56374;DHT22;58212;47.034;7.376;2023-03-19T09:59:50;13.20;99.90
56374;DHT22;58212;47.034;7.376;2023-03-19T10:02:38;13.70;99.90
56374;DHT22;58212;47.034;7.376;2023-03-19T10:05:13;13.80;99.90
56374;DHT22;58212;47.034;7.376;2023-03-19T10:07:59;13.70;99.90
56374;DHT22;58212;47.034;7.376;2023-03-19T10:10:40;13.70;99.90
56374;DHT22;58212;47.034;7.376;2023-03-19T10:13:20;14.00;99.90
56374;DHT22;58212;47.034;7.376;2023-03-19T10:15:53;14.20;99.90
56374;DHT22;58212;47.034;7.376;2023-03-19T10:18:26;14.20;99.90
56374;DHT22;58212;47.034;7.376;2023-03-19T10:21:22;13.90;99.90
56374;DHT22;58212;47.034;7.376;2023-03-19T10:23:54;13.80;99.90
56374;DHT22;58212;47.034;7.376;2023-03-19T10:26:28;13.60;99.90
56374;DHT22;58212;47.034;7.376;2023-03-19T10:29:05;13.80;99.90
56374;DHT22;58212;47.034;7.376;2023-03-19T10:31:48;13.90;99.90
56374;DHT22;58212;47.034;7.376;2023-03-19T10:34:43;13.60;99.90
56374;DHT22;58212;47.034;7.376;2023-03-19T10:37:15;13.60;99.90
56374;DHT22;58212;47.034;7.376;2023-03-19T10:39:43;13.50;99.90
56374;DHT22;58212;47.034;7.376;2023-03-19T10:42:37;13.50;99.90
56374;DHT22;58212;47.034;7.376;2023-03-19T10:45:20;13.40;99.90
56374;DHT22;58212;47.034;7.376;2023-03-19T10:47:50;13.20;99.90
56374;DHT22;58212;47.034;7.376;2023-03-19T10:50:20;13.30;99.90
56374;DHT22;58212;47.034;7.376;2023-03-19T10:52:50;13.10;99.90
56374;DHT22;58212;47.034;7.376;2023-03-19T10:55:22;13.20;99.90
56374;DHT22;58212;47.034;7.376;2023-03-19T10:57:55;13.20;99.90
56374;DHT22;58212;47.034;7.376;2023-03-19T11:00:55;13.40;99.90
56374;DHT22;58212;47.034;7.376;2023-03-19T11:03:50;13.20;99.90
56374;DHT22;58212;47.034;7.376;2023-03-19T11:06:47;13.20;99.90
56374;DHT22;58212;47.034;7.376;2023-03-19T11:09:18;13.00;99.90
56374;DHT22;58212;47.034;7.376;2023-03-19T11:11:50;12.90;99.90
56374;DHT22;58212;47.034;7.376;2023-03-19T11:14:21;12.90;99.90
56374;DHT22;58212;47.034;7.376;2023-03-19T11:16:57;13.10;99.90
56374;DHT22;58212;47.034;7.376;2023-03-19T11:19:27;13.00;99.90
56374;DHT22;58212;47.034;7.376;2023-03-19T11:22:08;12.60;99.90
56374;DHT22;58212;47.034;7.376;2023-03-19T11:24:37;12.70;99.90
56374;DHT22;58212;47.034;7.376;2023-03-19T11:27:05;12.80;99.90
56374;DHT22;58212;47.034;7.376;2023-03-19T11:29:35;12.90;99.90
56374;DHT22;58212;47.034;7.376;2023-03-19T11:32:19;12.70;99.90
56374;DHT22;58212;47.034;7.376;2023-03-19T11:34:52;12.50;99.90
56374;DHT22;58212;47.034;7.376;2023-03-19T11:37:28;12.60;99.90
56374;DHT22;58212;47.034;7.376;2023-03-19T11:40:05;12.60;99.90
56374;DHT22;58212;47.034;7.376;2023-03-19T11:45:36;12.70;99.90
56374;DHT22;58212;47.034;7.376;2023-03-19T11:48:18;12.60;99.90
56374;DHT22;58212;47.034;7.376;2023-03-19T11:50:50;12.60;99.90
56374;DHT22;58212;47.034;7.376;2023-03-19T11:53:23;12.60;99.90
56374;DHT22;58212;47.034;7.376;2023-03-19T11:56:01;12.40;99.90
56374;DHT22;58212;47.034;7.376;2023-03-19T12:01:47;12.70;99.90
56374;DHT22;58212;47.034;7.376;2023-03-19T12:04:44;12.90;99.90
56374;DHT22;58212;47.034;7.376;2023-03-19T12:07:22;12.80;99.90
56374;DHT22;58212;47.034;7.376;2023-03-19T12:09:55;12.80;99.90
56374;DHT22;58212;47.034;7.376;2023-03-19T12:12:31;12.60;99.90
56374;DHT22;58212;47.034;7.376;2023-03-19T12:15:08;12.30;99.90
56374;DHT22;58212;47.034;7.376;2023-03-19T12:17:48;12.40;99.90
56374;DHT22;58212;47.034;7.376;2023-03-19T12:20:33;12.40;99.90
56374;DHT22;58212;47.034;7.376;2023-03-19T12:23:06;12.30;99.90
56374;DHT22;58212;47.034;7.376;2023-03-19T12:25:49;12.30;99.90
56374;DHT22;58212;47.034;7.376;2023-03-19T12:28:22;12.30;99.90
56374;DHT22;58212;47.034;7.376;2023-03-19T12:31:01;12.20;99.90
56374;DHT22;58212;47.034;7.376;2023-03-19T12:33:40;12.10;99.90
56374;DHT22;58212;47.034;7.376;2023-03-19T12:36:16;11.80;99.90
56374;DHT22;58212;47.034;7.376;2023-03-19T12:39:14;11.90;99.90
56374;DHT22;58212;47.034;7.376;2023-03-19T12:41:44;11.90;99.90
56374;DHT22;58212;47.034;7.376;2023-03-19T12:44:18;12.10;99.90
56374;DHT22;58212;47.034;7.376;2023-03-19T12:46:52;12.00;99.90
56374;DHT22;58212;47.034;7.376;2023-03-19T12:49:27;12.00;99.90
56374;DHT22;58212;47.034;7.376;2023-03-19T12:52:01;12.10;99.90
56374;DHT22;58212;47.034;7.376;2023-03-19T12:54:33;12.00;99.90
56374;DHT22;58212;47.034;7.376;2023-03-19T12:57:05;11.70;99.90
56374;DHT22;58212;47.034;7.376;2023-03-19T12:59:37;11.70;99.90
56374;DHT22;58212;47.034;7.376;2023-03-19T13:02:13;12.10;99.90
56374;DHT22;58212;47.034;7.376;2023-03-19T13:04:48;12.00;99.90
56374;DHT22;58212;47.034;7.376;2023-03-19T13:07:23;11.90;99.90
56374;DHT22;58212;47.034;7.376;2023-03-19T13:10:00;11.70;99.90
56374;DHT22;58212;47.034;7.376;2023-03-19T13:12:32;11.80;99.90
56374;DHT22;58212;47.034;7.376;2023-03-19T13:15:06;12.10;99.90
56374;DHT22;58212;47.034;7.376;2023-03-19T13:17:40;12.10;99.90
56374;DHT22;58212;47.034;7.376;2023-03-19T13:20:17;12.40;99.90
56374;DHT22;58212;47.034;7.376;2023-03-19T13:22:52;12.40;99.90
56374;DHT22;58212;47.034;7.376;2023-03-19T13:25:26;12.50;99.90
56374;DHT22;58212;47.034;7.376;2023-03-19T13:27:57;12.50;99.90
56374;DHT22;58212;47.034;7.376;2023-03-19T13:30:25;12.80;99.90
56374;DHT22;58212;47.034;7.376;2023-03-19T13:33:01;13.10;99.90
56374;DHT22;58212;47.034;7.376;2023-03-19T13:35:36;13.20;99.90
56374;DHT22;58212;47.034;7.376;2023-03-19T13:38:16;13.10;99.90
56374;DHT22;58212;47.034;7.376;2023-03-19T13:40:46;12.90;99.90
56374;DHT22;58212;47.034;7.376;2023-03-19T13:43:41;12.60;99.90
56374;DHT22;58212;47.034;7.376;2023-03-19T13:46:37;12.70;99.90
56374;DHT22;58212;47.034;7.376;2023-03-19T13:49:29;12.70;99.90
56374;DHT22;58212;47.034;7.376;2023-03-19T13:54:53;13.00;99.90
56374;DHT22;58212;47.034;7.376;2023-03-19T13:57:32;13.00;99.90
56374;DHT22;58212;47.034;7.376;2023-03-19T14:03:04;12.60;99.90
56374;DHT22;58212;47.034;7.376;2023-03-19T14:05:33;12.70;99.90
56374;DHT22;58212;47.034;7.376;2023-03-19T14:08:14;12.90;99.90
56374;DHT22;58212;47.034;7.376;2023-03-19T14:10:48;12.80;99.90
56374;DHT22;58212;47.034;7.376;2023-03-19T14:13:25;12.80;99.90
56374;DHT22;58212;47.034;7.376;2023-03-19T14:16:20;12.60;99.90
56374;DHT22;58212;47.034;7.376;2023-03-19T14:18:50;12.60;99.90
56374;DHT22;58212;47.034;7.376;2023-03-19T14:21:39;12.90;99.90
56374;DHT22;58212;47.034;7.376;2023-03-19T14:24:32;12.80;99.90
56374;DHT22;58212;47.034;7.376;2023-03-19T14:27:09;12.70;99.90
56374;DHT22;58212;47.034;7.376;2023-03-19T14:29:41;12.70;99.90
56374;DHT22;58212;47.034;7.376;2023-03-19T14:32:14;12.70;99.90
56374;DHT22;58212;47.034;7.376;2023-03-19T14:34:44;12.70;99.90
56374;DHT22;58212;47.034;7.376;2023-03-19T14:37:19;12.80;99.90
56374;DHT22;58212;47.034;7.376;2023-03-19T14:39:53;12.70;99.90
56374;DHT22;58212;47.034;7.376;2023-03-19T14:42:26;12.80;99.90
56374;DHT22;58212;47.034;7.376;2023-03-19T14:51:29;12.30;99.90
56374;DHT22;58212;47.034;7.376;2023-03-19T14:54:05;12.40;99.90
56374;DHT22;58212;47.034;7.376;2023-03-19T14:56:39;12.30;99.90
56374;DHT22;58212;47.034;7.376;2023-03-19T14:59:10;12.10;99.90
56374;DHT22;58212;47.034;7.376;2023-03-19T15:01:43;12.00;99.90
56374;DHT22;58212;47.034;7.376;2023-03-19T15:04:13;12.20;99.90
56374;DHT22;58212;47.034;7.376;2023-03-19T15:06:45;12.20;99.90
56374;DHT22;58212;47.034;7.376;2023-03-19T15:09:18;12.20;99.90
56374;DHT22;58212;47.034;7.376;2023-03-19T15:12:09;12.10;99.90
56374;DHT22;58212;47.034;7.376;2023-03-19T15:18:01;11.90;99.90
56374;DHT22;58212;47.034;7.376;2023-03-19T15:20:33;12.00;99.90
56374;DHT22;58212;47.034;7.376;2023-03-19T15:23:07;12.10;99.90
56374;DHT22;58212;47.034;7.376;2023-03-19T15:25:43;12.30;99.90
56374;DHT22;58212;47.034;7.376;2023-03-19T15:28:13;12.20;99.90
56374;DHT22;58212;47.034;7.376;2023-03-19T15:30:43;12.20;99.90
56374;DHT22;58212;47.034;7.376;2023-03-19T15:33:19;12.20;99.90
56374;DHT22;58212;47.034;7.376;2023-03-19T15:35:52;12.30;99.90
56374;DHT22;58212;47.034;7.376;2023-03-19T15:38:21;12.30;99.90
56374;DHT22;58212;47.034;7.376;2023-03-19T15:40:50;12.20;99.90
56374;DHT22;58212;47.034;7.376;2023-03-19T15:43:17;12.30;99.90
56374;DHT22;58212;47.034;7.376;2023-03-19T15:45:49;12.30;99.90
56374;DHT22;58212;47.034;7.376;2023-03-19T15:48:18;12.30;99.90
56374;DHT22;58212;47.034;7.376;2023-03-19T15:50:50;11.90;99.90
56374;DHT22;58212;47.034;7.376;2023-03-19T15:53:21;12.00;99.90
56374;DHT22;58212;47.034;7.376;2023-03-19T15:55:51;12.00;99.90
56374;DHT22;58212;47.034;7.376;2023-03-19T15:58:21;12.10;99.90
56374;DHT22;58212;47.034;7.376;2023-03-19T16:00:52;12.10;99.90
56374;DHT22;58212;47.034;7.376;2023-03-19T16:03:24;12.10;99.90
56374;DHT22;58212;47.034;7.376;2023-03-19T16:05:59;12.00;99.90
56374;DHT22;58212;47.034;7.376;2023-03-19T16:08:28;11.90;99.90
56374;DHT22;58212;47.034;7.376;2023-03-19T16:11:11;12.00;99.90
56374;DHT22;58212;47.034;7.376;2023-03-19T16:13:41;12.00;99.90
56374;DHT22;58212;47.034;7.376;2023-03-19T16:16:18;12.00;99.90
56374;DHT22;58212;47.034;7.376;2023-03-19T16:18:49;11.80;99.90
56374;DHT22;58212;47.034;7.376;2023-03-19T16:21:19;11.30;99.90
56374;DHT22;58212;47.034;7.376;2023-03-19T16:23:51;11.10;99.90
56374;DHT22;58212;47.034;7.376;2023-03-19T16:26:24;10.90;99.90
56374;DHT22;58212;47.034;7.376;2023-03-19T16:28:59;11.00;99.90
56374;DHT22;58212;47.034;7.376;2023-03-19T16:31:39;11.20;99.90
56374;DHT22;58212;47.034;7.376;2023-03-19T16:34:22;11.30;99.90